createdAt,value
2022-10-17T00:00:16.815Z,972.55
2022-10-17T00:01:17.207Z,972.58
2022-10-17T00:02:17.457Z,972.55
2022-10-17T00:03:17.775Z,972.55
2022-10-17T00:04:18.083Z,972.54
2022-10-17T00:05:18.402Z,972.57
2022-10-17T00:06:18.743Z,972.54
2022-10-17T00:07:19.050Z,972.61
2022-10-17T00:08:19.369Z,972.56
2022-10-17T00:09:19.668Z,972.56
2022-10-17T00:10:19.951Z,972.57
2022-10-17T00:11:20.280Z,972.57
2022-10-17T00:12:20.585Z,972.58
2022-10-17T00:13:20.921Z,972.58
2022-10-17T00:14:21.170Z,972.59
2022-10-17T00:15:21.500Z,972.58
2022-10-17T00:16:21.801Z,972.64
2022-10-17T00:17:22.106Z,972.60
2022-10-17T00:18:22.400Z,972.60
2022-10-17T00:19:22.688Z,972.66
2022-10-17T00:20:23.022Z,972.71
2022-10-17T00:21:23.326Z,972.69
2022-10-17T00:22:23.694Z,972.74
2022-10-17T00:23:23.887Z,972.72
2022-10-17T00:24:24.227Z,972.70
2022-10-17T00:25:24.540Z,972.70
2022-10-17T00:26:24.859Z,972.71
2022-10-17T00:27:25.423Z,972.67
2022-10-17T00:28:25.433Z,972.65
2022-10-17T00:29:25.777Z,972.65
2022-10-17T00:30:26.094Z,972.67
2022-10-17T00:31:26.413Z,972.66
2022-10-17T00:32:26.953Z,972.66
2022-10-17T00:33:26.908Z,972.61
2022-10-17T00:34:27.237Z,972.66
2022-10-17T00:35:27.565Z,972.68
2022-10-17T00:36:27.915Z,972.70
2022-10-17T00:37:28.113Z,972.75
2022-10-17T00:38:28.427Z,972.70
2022-10-17T00:39:28.741Z,972.74
2022-10-17T00:40:29.053Z,972.74
2022-10-17T00:41:29.388Z,972.76
2022-10-17T00:42:30.070Z,972.80
2022-10-17T00:43:29.834Z,972.74
2022-10-17T00:44:30.136Z,972.78
2022-10-17T00:45:30.451Z,972.79
2022-10-17T00:46:30.800Z,972.76
2022-10-17T00:47:31.000Z,972.78
2022-10-17T00:48:31.336Z,972.77
2022-10-17T00:49:31.670Z,972.77
2022-10-17T00:50:31.868Z,972.74
2022-10-17T00:51:32.201Z,972.73
2022-10-17T02:55:58.044Z,972.77
2022-10-17T02:56:58.312Z,972.81
2022-10-17T02:57:58.565Z,972.76
2022-10-17T02:58:58.823Z,972.74
2022-10-17T02:59:59.068Z,972.75
2022-10-17T03:00:59.292Z,972.77
2022-10-17T03:01:59.543Z,972.73
2022-10-17T03:02:59.895Z,972.76
2022-10-17T03:04:00.125Z,972.70
2022-10-17T03:05:00.449Z,972.69
2022-10-17T03:06:00.754Z,972.69
2022-10-17T03:07:01.066Z,972.66
2022-10-17T03:08:01.417Z,972.65
2022-10-17T03:09:01.622Z,972.67
2022-10-17T03:10:01.941Z,972.71
2022-10-17T03:11:02.255Z,972.73
2022-10-17T03:12:02.564Z,972.71
2022-10-17T03:13:02.913Z,972.70
2022-10-17T03:14:03.134Z,972.71
2022-10-17T03:15:03.464Z,972.71
2022-10-17T03:16:03.833Z,972.76
2022-10-17T03:17:04.052Z,972.82
2022-10-17T03:18:04.380Z,972.85
2022-10-17T03:19:04.683Z,972.86
2022-10-17T03:20:05.012Z,972.89
2022-10-17T03:21:05.206Z,972.91
2022-10-17T03:22:05.504Z,972.90
2022-10-17T03:23:05.803Z,972.94
2022-10-17T03:24:06.151Z,972.96
2022-10-17T03:25:06.355Z,972.97
2022-10-17T03:26:06.686Z,972.88
2022-10-17T03:27:06.922Z,972.93
2022-10-17T03:28:07.114Z,972.91
2022-10-17T03:29:07.479Z,972.92
2022-10-17T03:30:07.716Z,972.96
2022-10-17T03:31:08.040Z,972.99
2022-10-17T03:32:08.399Z,973.03
2022-10-17T03:33:08.596Z,972.99
2022-10-17T03:34:08.886Z,972.99
2022-10-17T03:35:12.615Z,973.02
2022-10-17T03:36:10.481Z,973.02
2022-10-17T03:37:09.761Z,973.04
2022-10-17T03:38:10.110Z,973.04
2022-10-17T03:39:10.353Z,973.02
2022-10-17T03:40:10.571Z,973.02
2022-10-17T03:41:10.886Z,972.98
2022-10-17T03:42:11.246Z,973.00
2022-10-17T03:43:11.467Z,973.04
2022-10-17T03:44:11.780Z,973.05
2022-10-17T03:45:12.120Z,973.07
2022-10-17T03:46:12.341Z,973.06
2022-10-17T03:47:14.259Z,973.10
2022-10-17T03:48:12.868Z,973.12
2022-10-17T03:49:13.192Z,973.17
2022-10-17T03:50:13.560Z,973.17
2022-10-17T03:51:13.764Z,973.14
2022-10-17T03:52:14.103Z,973.15
2022-10-17T03:53:14.422Z,973.17
2022-10-17T03:54:14.775Z,973.18
2022-10-17T03:55:15.005Z,973.19
2022-10-17T03:56:15.217Z,973.18
2022-10-17T03:57:15.560Z,973.23
2022-10-17T03:58:15.764Z,973.23
2022-10-17T03:59:15.976Z,973.25
2022-10-17T04:00:16.297Z,973.20
2022-10-17T04:01:16.663Z,973.25
2022-10-17T04:02:16.950Z,973.22
2022-10-17T04:03:17.442Z,973.24
2022-10-17T04:04:17.499Z,973.25
2022-10-17T04:05:17.829Z,973.26
2022-10-17T04:06:18.126Z,973.28
2022-10-17T04:07:18.508Z,973.26
2022-10-17T04:08:18.704Z,973.27
2022-10-17T04:09:19.017Z,973.30
2022-10-17T04:10:19.336Z,973.24
2022-10-17T04:11:19.641Z,973.28
2022-10-17T04:12:20.023Z,973.28
2022-10-17T04:13:20.231Z,973.26
2022-10-17T04:14:20.561Z,973.30
2022-10-17T04:15:20.879Z,973.30
2022-10-17T04:16:21.188Z,973.34
2022-10-17T04:17:21.556Z,973.38
2022-10-17T04:18:21.759Z,973.43
2022-10-17T04:19:22.059Z,973.45
2022-10-17T04:20:22.382Z,973.47
2022-10-17T04:21:22.706Z,973.47
2022-10-17T04:22:23.044Z,973.48
2022-10-17T04:23:23.253Z,973.51
2022-10-17T04:24:23.578Z,973.46
2022-10-17T04:25:23.900Z,973.54
2022-10-17T04:26:24.214Z,973.51
2022-10-17T04:27:24.543Z,973.50
2022-10-17T04:28:24.864Z,973.52
2022-10-17T04:29:25.019Z,973.56
2022-10-17T04:30:25.333Z,973.53
2022-10-17T04:31:25.661Z,973.54
2022-10-17T04:32:26.158Z,973.51
2022-10-17T04:33:26.223Z,973.53
2022-10-17T04:34:26.522Z,973.53
2022-10-17T04:35:26.831Z,973.58
2022-10-17T04:36:27.151Z,973.56
2022-10-17T04:37:27.482Z,973.56
2022-10-17T04:38:28.687Z,973.53
2022-10-17T04:39:28.004Z,973.54
2022-10-17T04:40:28.359Z,973.48
2022-10-17T04:41:28.551Z,973.55
2022-10-17T04:42:29.098Z,973.63
2022-10-17T04:43:29.093Z,973.59
2022-10-17T04:44:29.441Z,973.62
2022-10-17T04:45:29.664Z,973.59
2022-10-17T04:46:29.983Z,973.61
2022-10-17T04:47:30.242Z,973.57
2022-10-17T04:48:30.449Z,973.57
2022-10-17T04:49:30.892Z,973.61
2022-10-17T04:50:31.021Z,973.61
2022-10-17T04:51:31.237Z,973.57
2022-10-17T04:52:31.842Z,973.58
2022-10-17T04:53:31.842Z,973.49
2022-10-17T04:54:32.205Z,973.49
2022-10-17T04:55:32.404Z,973.54
2022-10-17T04:56:32.742Z,973.55
2022-10-17T04:57:33.060Z,973.56
2022-10-17T04:58:33.389Z,973.53
2022-10-17T04:59:33.735Z,973.55
2022-10-17T05:00:34.001Z,973.65
2022-10-17T05:01:34.233Z,973.63
2022-10-17T05:02:34.549Z,973.65
2022-10-17T05:03:34.887Z,973.68
2022-10-17T05:04:35.242Z,973.63
2022-10-17T05:05:35.434Z,973.67
2022-10-17T05:06:35.733Z,973.67
2022-10-17T05:07:36.032Z,973.69
2022-10-17T05:08:36.364Z,973.69
2022-10-17T05:09:36.593Z,973.67
2022-10-17T05:10:36.912Z,973.70
2022-10-17T05:11:37.244Z,973.68
2022-10-17T05:12:37.458Z,973.72
2022-10-17T05:13:37.788Z,973.76
2022-10-17T05:14:38.131Z,973.78
2022-10-17T05:15:38.338Z,973.74
2022-10-17T05:16:38.661Z,973.75
2022-10-17T05:17:39.012Z,973.71
2022-10-17T05:18:39.219Z,973.70
2022-10-17T05:19:39.533Z,973.75
2022-10-17T05:20:39.842Z,973.79
2022-10-17T05:21:40.207Z,973.76
2022-10-17T05:22:42.036Z,973.77
2022-10-17T05:23:40.667Z,973.79
2022-10-17T05:24:40.981Z,973.82
2022-10-17T05:25:41.279Z,973.79
2022-10-17T05:26:41.648Z,973.81
2022-10-17T05:27:41.921Z,973.86
2022-10-17T05:28:42.169Z,973.80
2022-10-17T05:29:42.398Z,973.81
2022-10-17T05:30:42.721Z,973.86
2022-10-17T05:31:43.102Z,973.86
2022-10-17T05:32:43.318Z,973.87
2022-10-17T05:33:43.642Z,973.86
2022-10-17T05:34:43.976Z,973.85
2022-10-17T05:35:44.335Z,973.86
2022-10-17T05:36:44.548Z,973.86
2022-10-17T05:37:44.866Z,973.88
2022-10-17T05:38:45.242Z,973.85
2022-10-17T05:39:49.205Z,973.89
2022-10-17T05:40:46.785Z,973.86
2022-10-17T05:41:46.081Z,973.89
2022-10-17T05:42:46.290Z,973.83
2022-10-17T05:43:46.598Z,973.85
2022-10-17T05:44:46.978Z,973.85
2022-10-17T05:45:47.184Z,973.82
2022-10-17T05:46:47.499Z,973.85
2022-10-17T05:47:47.707Z,973.85
2022-10-17T05:48:48.010Z,973.86
2022-10-17T05:49:51.417Z,973.85
2022-10-17T05:50:48.654Z,973.85
2022-10-17T05:51:48.972Z,973.87
2022-10-17T05:52:49.280Z,973.86
2022-10-17T05:53:49.593Z,973.80
2022-10-17T05:54:49.947Z,973.75
2022-10-17T05:55:50.176Z,973.77
2022-10-17T05:56:50.499Z,973.79
2022-10-17T05:57:50.822Z,973.81
2022-10-17T05:58:54.111Z,973.84
2022-10-17T05:59:51.386Z,973.86
2022-10-17T06:00:51.706Z,973.87
2022-10-17T06:01:52.023Z,973.88
2022-10-17T06:02:52.357Z,973.94
2022-10-17T06:03:52.719Z,973.96
2022-10-17T06:04:52.933Z,973.98
2022-10-17T06:05:53.192Z,973.97
2022-10-17T06:06:53.399Z,974.01
2022-10-17T06:07:56.972Z,973.99
2022-10-17T06:08:54.938Z,973.97
2022-10-17T06:09:54.221Z,973.96
2022-10-17T06:10:54.538Z,974.00
2022-10-17T06:11:54.852Z,974.02
2022-10-17T06:12:55.211Z,974.07
2022-10-17T06:13:55.469Z,974.09
2022-10-17T06:14:55.689Z,974.08
2022-10-17T06:15:56.000Z,974.12
2022-10-17T06:16:56.334Z,974.10
2022-10-17T06:17:56.552Z,974.14
2022-10-17T06:18:56.907Z,974.16
2022-10-17T06:19:57.109Z,974.22
2022-10-17T06:20:57.448Z,974.24
2022-10-17T06:21:57.782Z,974.25
2022-10-17T06:22:58.101Z,974.28
2022-10-17T06:23:58.429Z,974.25
2022-10-17T06:24:58.632Z,974.27
2022-10-17T06:25:58.962Z,974.27
2022-10-17T06:26:59.281Z,974.30
2022-10-17T06:27:59.639Z,974.34
2022-10-17T06:28:59.971Z,974.27
2022-10-17T06:30:00.145Z,974.30
2022-10-17T06:31:00.337Z,974.31
2022-10-17T06:32:00.671Z,974.33
2022-10-17T06:33:00.985Z,974.34
2022-10-17T06:34:01.304Z,974.31
2022-10-17T06:35:01.673Z,974.25
2022-10-17T06:36:01.887Z,974.27
2022-10-17T06:37:02.216Z,974.33
2022-10-17T06:38:02.539Z,974.32
2022-10-17T06:39:02.872Z,974.33
2022-10-17T06:40:03.085Z,974.33
2022-10-17T06:41:03.348Z,974.33
2022-10-17T06:42:03.571Z,974.42
2022-10-17T06:43:03.890Z,974.41
2022-10-17T06:44:04.210Z,974.43
2022-10-17T06:45:04.549Z,974.45
2022-10-17T06:46:04.806Z,974.48
2022-10-17T06:47:04.988Z,974.49
2022-10-17T06:48:05.352Z,974.49
2022-10-17T06:49:05.547Z,974.48
2022-10-17T06:50:05.874Z,974.54
2022-10-17T06:51:06.198Z,974.52
2022-10-17T06:52:06.526Z,974.53
2022-10-17T06:53:06.874Z,974.53
2022-10-17T06:54:07.129Z,974.59
2022-10-17T06:55:07.347Z,974.56
2022-10-17T06:56:07.665Z,974.57
2022-10-17T06:57:07.969Z,974.55
2022-10-17T06:58:08.304Z,974.60
2022-10-17T06:59:08.671Z,974.65
2022-10-17T07:00:08.885Z,974.66
2022-10-17T07:02:09.511Z,974.75
2022-10-17T07:03:09.852Z,974.75
2022-10-17T07:04:10.190Z,974.77
2022-10-17T07:05:10.403Z,974.76
2022-10-17T07:06:10.738Z,974.74
2022-10-17T07:07:11.093Z,974.73
2022-10-17T07:08:11.293Z,974.72
2022-10-17T07:09:11.607Z,974.76
2022-10-17T07:10:11.951Z,974.79
2022-10-17T07:11:12.154Z,974.81
2022-10-17T07:12:12.513Z,974.81
2022-10-17T07:13:12.732Z,974.76
2022-10-17T07:14:13.055Z,974.77
2022-10-17T07:15:13.395Z,974.76
2022-10-17T07:16:13.784Z,974.79
2022-10-17T07:17:14.032Z,974.80
2022-10-17T07:18:14.229Z,974.81
2022-10-17T07:19:14.542Z,974.83
2022-10-17T07:20:14.870Z,974.80
2022-10-17T07:21:15.190Z,974.82
2022-10-17T07:22:15.538Z,974.86
2022-10-17T07:23:15.751Z,974.84
2022-10-17T07:24:16.081Z,974.90
2022-10-17T07:25:16.448Z,974.93
2022-10-17T07:26:16.675Z,974.90
2022-10-17T07:27:17.012Z,974.91
2022-10-17T07:28:17.340Z,974.87
2022-10-17T07:29:17.706Z,974.88
2022-10-17T07:30:17.913Z,974.94
2022-10-17T07:31:18.266Z,974.97
2022-10-17T07:32:18.468Z,974.91
2022-10-17T07:33:18.798Z,974.94
2022-10-17T07:34:19.001Z,974.96
2022-10-17T07:35:19.386Z,975.02
2022-10-17T07:36:19.563Z,975.00
2022-10-17T07:37:19.871Z,975.05
2022-10-17T07:38:20.200Z,975.07
2022-10-17T07:39:20.520Z,975.01
2022-10-17T07:40:20.857Z,975.06
2022-10-17T07:41:21.929Z,975.02
2022-10-17T07:42:21.494Z,975.03
2022-10-17T07:43:21.799Z,975.02
2022-10-17T07:44:22.157Z,974.99
2022-10-17T07:45:22.341Z,975.03
2022-10-17T07:46:22.649Z,975.01
2022-10-17T07:47:22.927Z,975.00
2022-10-17T07:48:23.271Z,974.99
2022-10-17T07:49:23.478Z,975.00
2022-10-17T07:50:23.782Z,975.10
2022-10-17T07:51:24.099Z,975.05
2022-10-17T07:52:24.451Z,975.07
2022-10-17T07:53:24.645Z,975.11
2022-10-17T07:54:24.961Z,975.10
2022-10-17T07:55:25.254Z,975.10
2022-10-17T07:56:25.548Z,975.10
2022-10-17T07:57:25.837Z,975.10
2022-10-17T07:58:26.132Z,975.09
2022-10-17T07:59:26.470Z,975.07
2022-10-17T08:00:26.783Z,975.07
2022-10-17T08:01:27.092Z,975.07
2022-10-17T08:02:27.783Z,975.16
2022-10-17T08:03:27.643Z,975.17
2022-10-17T08:04:28.007Z,975.19
2022-10-17T08:05:28.200Z,975.17
2022-10-17T08:06:28.473Z,975.19
2022-10-17T08:07:29.599Z,975.17
2022-10-17T08:08:28.990Z,975.16
2022-10-17T08:09:29.315Z,975.16
2022-10-17T08:10:29.634Z,975.17
2022-10-17T08:11:29.957Z,975.20
2022-10-17T08:12:30.567Z,975.21
2022-10-17T08:13:30.513Z,975.11
2022-10-17T08:14:30.861Z,975.15
2022-10-17T08:15:32.068Z,975.15
2022-10-17T08:16:31.277Z,975.17
2022-10-17T08:17:31.620Z,975.18
2022-10-17T08:18:31.830Z,975.16
2022-10-17T08:19:32.133Z,975.18
2022-10-17T08:20:32.419Z,975.14
2022-10-17T08:21:32.775Z,975.13
2022-10-17T08:22:33.085Z,975.15
2022-10-17T08:23:33.388Z,975.17
2022-10-17T08:24:33.705Z,975.15
2022-10-17T08:25:34.010Z,975.15
2022-10-17T08:26:35.054Z,975.19
2022-10-17T08:27:34.606Z,975.22
2022-10-17T08:28:34.956Z,975.26
2022-10-17T08:29:35.175Z,975.24
2022-10-17T08:30:35.494Z,975.20
2022-10-17T08:31:35.853Z,975.18
2022-10-17T08:32:36.039Z,975.24
2022-10-17T08:33:36.357Z,975.25
2022-10-17T08:34:36.677Z,975.26
2022-10-17T08:35:37.011Z,975.23
2022-10-17T08:36:37.354Z,975.28
2022-10-17T08:37:37.547Z,975.30
2022-10-17T08:38:40.376Z,975.30
2022-10-17T08:39:39.162Z,975.29
2022-10-17T08:40:38.442Z,975.32
2022-10-17T08:41:38.627Z,975.29
2022-10-17T08:42:38.953Z,975.31
2022-10-17T08:43:39.254Z,975.32
2022-10-17T08:44:39.571Z,975.32
2022-10-17T08:45:39.951Z,975.33
2022-10-17T08:46:40.149Z,975.30
2022-10-17T08:47:40.442Z,975.30
2022-10-17T08:48:44.057Z,975.28
2022-10-17T08:49:42.073Z,975.32
2022-10-17T08:50:41.374Z,975.33
2022-10-17T08:51:41.587Z,975.31
2022-10-17T08:52:41.916Z,975.32
2022-10-17T08:53:42.223Z,975.31
2022-10-17T08:54:42.563Z,975.30
2022-10-17T08:55:45.411Z,975.35
2022-10-17T08:56:48.567Z,975.37
2022-10-17T08:57:44.455Z,975.36
2022-10-17T08:58:43.782Z,975.35
2022-10-17T08:59:44.155Z,975.35
2022-10-17T09:00:44.343Z,975.36
2022-10-17T09:01:44.688Z,975.40
2022-10-17T09:02:45.097Z,975.31
2022-10-17T09:03:45.235Z,975.37
2022-10-17T09:04:45.604Z,975.37
2022-10-17T09:05:45.816Z,975.39
2022-10-17T09:06:46.190Z,975.36
2022-10-17T09:07:46.398Z,975.33
2022-10-17T09:08:46.707Z,975.31
2022-10-17T09:09:47.056Z,975.36
2022-10-17T09:10:47.384Z,975.40
2022-10-17T09:11:47.739Z,975.37
2022-10-17T09:12:47.951Z,975.34
2022-10-17T09:13:48.285Z,975.39
2022-10-17T09:14:48.599Z,975.32
2022-10-17T09:15:48.918Z,975.30
2022-10-17T09:16:49.266Z,975.32
2022-10-17T09:17:49.613Z,975.34
2022-10-17T09:18:49.808Z,975.25
2022-10-17T09:19:50.126Z,975.33
2022-10-17T09:20:50.446Z,975.33
2022-10-17T09:21:50.775Z,975.38
2022-10-17T09:22:51.124Z,975.35
2022-10-17T09:23:56.118Z,975.37
2022-10-17T09:24:52.627Z,975.33
2022-10-17T09:25:51.894Z,975.33
2022-10-17T09:26:52.207Z,975.39
2022-10-17T09:27:52.550Z,975.35
2022-10-17T09:28:52.900Z,975.36
2022-10-17T09:29:53.144Z,975.35
2022-10-17T09:30:53.466Z,975.33
2022-10-17T09:31:53.780Z,975.36
2022-10-17T09:32:54.029Z,975.39
2022-10-17T09:33:55.137Z,975.43
2022-10-17T09:34:54.636Z,975.42
2022-10-17T09:35:54.995Z,975.45
2022-10-17T09:36:55.198Z,975.45
2022-10-17T09:37:55.506Z,975.43
2022-10-17T09:38:55.814Z,975.42
2022-10-17T09:39:56.148Z,975.45
2022-10-17T09:40:57.236Z,975.42
2022-10-17T09:41:56.771Z,975.43
2022-10-17T09:42:57.084Z,975.47
2022-10-17T09:43:57.378Z,975.47
2022-10-17T09:44:57.713Z,975.45
2022-10-17T09:45:58.024Z,975.49
2022-10-17T09:46:58.349Z,975.45
2022-10-17T09:48:01.011Z,975.47
2022-10-17T09:48:58.946Z,975.46
2022-10-17T09:49:59.246Z,975.41
2022-10-17T09:51:14.645Z,975.42
2022-10-17T09:52:00.850Z,975.44
2022-10-17T09:53:00.125Z,975.51
2022-10-17T09:54:00.459Z,975.52
2022-10-17T09:55:00.757Z,975.49
2022-10-17T09:56:01.076Z,975.51
2022-10-17T09:57:01.384Z,975.50
2022-10-17T09:58:01.718Z,975.55
2022-10-17T09:59:02.042Z,975.51
2022-10-17T10:00:02.456Z,975.55
2022-10-17T10:01:02.664Z,975.59
2022-10-17T10:02:02.858Z,975.52
2022-10-17T10:03:03.242Z,975.52
2022-10-17T10:04:03.500Z,975.55
2022-10-17T10:05:05.621Z,975.53
2022-10-17T10:06:04.027Z,975.51
2022-10-17T10:07:04.320Z,975.46
2022-10-17T10:08:04.606Z,975.51
2022-10-17T10:09:04.882Z,975.51
2022-10-17T10:10:05.207Z,975.52
2022-10-17T10:11:05.512Z,975.53
2022-10-17T10:12:05.813Z,975.54
2022-10-17T10:13:06.137Z,975.60
2022-10-17T10:14:06.441Z,975.59
2022-10-17T10:15:06.738Z,975.58
2022-10-17T10:16:07.062Z,975.57
2022-10-17T10:17:07.250Z,975.61
2022-10-17T10:18:07.548Z,975.60
2022-10-17T10:19:09.149Z,975.59
2022-10-17T10:20:08.136Z,975.60
2022-10-17T10:21:08.455Z,975.56
2022-10-17T10:22:08.798Z,975.50
2022-10-17T10:23:09.118Z,975.54
2022-10-17T10:24:09.473Z,975.52
2022-10-17T10:25:09.658Z,975.54
2022-10-17T10:26:12.318Z,975.59
2022-10-17T10:27:10.220Z,975.56
2022-10-17T10:28:10.540Z,975.59
2022-10-17T10:29:11.011Z,975.62
2022-10-17T10:30:11.361Z,975.66
2022-10-17T10:31:11.371Z,975.64
2022-10-17T10:32:11.646Z,975.65
2022-10-17T10:33:11.916Z,975.62
2022-10-17T10:34:12.266Z,975.62
2022-10-17T10:35:12.443Z,975.62
2022-10-17T10:36:12.737Z,975.60
2022-10-17T10:37:14.753Z,975.68
2022-10-17T10:38:13.339Z,975.63
2022-10-17T10:39:13.663Z,975.60
2022-10-17T10:40:14.016Z,975.62
2022-10-17T10:41:14.222Z,975.61
2022-10-17T10:42:14.551Z,975.66
2022-10-17T10:43:14.756Z,975.65
2022-10-17T10:44:15.045Z,975.62
2022-10-17T10:45:29.413Z,975.61
2022-10-17T10:46:16.701Z,975.59
2022-10-17T10:47:15.936Z,975.58
2022-10-17T10:48:16.274Z,975.56
2022-10-17T10:49:16.587Z,975.58
2022-10-17T10:50:16.942Z,975.60
2022-10-17T10:51:17.125Z,975.61
2022-10-17T10:52:17.415Z,975.55
2022-10-17T10:53:17.731Z,975.59
2022-10-17T10:54:18.039Z,975.56
2022-10-17T10:55:18.358Z,975.59
2022-10-17T10:56:18.683Z,975.59
2022-10-17T10:57:19.001Z,975.54
2022-10-17T10:58:19.315Z,975.57
2022-10-17T10:59:19.626Z,975.57
2022-10-17T11:00:19.927Z,975.56
2022-10-17T11:01:20.317Z,975.57
2022-10-17T11:02:20.573Z,975.54
2022-10-17T11:03:20.867Z,975.54
2022-10-17T11:04:23.005Z,975.55
2022-10-17T11:05:21.425Z,975.51
2022-10-17T11:06:21.733Z,975.52
2022-10-17T11:07:22.077Z,975.54
2022-10-17T11:08:22.275Z,975.55
2022-10-17T11:09:22.583Z,975.51
2022-10-17T11:10:22.917Z,975.46
2022-10-17T11:11:23.231Z,975.54
2022-10-17T11:12:23.539Z,975.46
2022-10-17T11:13:23.855Z,975.51
2022-10-17T11:14:24.152Z,975.49
2022-10-17T11:15:24.501Z,975.52
2022-10-17T11:16:24.811Z,975.49
2022-10-17T11:17:25.167Z,975.45
2022-10-17T11:18:25.397Z,975.45
2022-10-17T11:19:25.590Z,975.39
2022-10-17T11:20:25.894Z,975.41
2022-10-17T11:21:26.202Z,975.45
2022-10-17T11:22:29.045Z,975.38
2022-10-17T11:23:26.863Z,975.40
2022-10-17T11:24:27.179Z,975.41
2022-10-17T11:25:27.377Z,975.41
2022-10-17T11:26:27.756Z,975.45
2022-10-17T11:27:27.968Z,975.42
2022-10-17T11:28:28.385Z,975.48
2022-10-17T11:29:28.589Z,975.43
2022-10-17T11:30:28.893Z,975.41
2022-10-17T11:31:29.218Z,975.39
2022-10-17T11:32:29.929Z,975.28
2022-10-17T11:33:29.816Z,975.36
2022-10-17T11:34:30.123Z,975.41
2022-10-17T11:35:30.422Z,975.34
2022-10-17T11:36:30.719Z,975.37
2022-10-17T11:37:31.034Z,975.33
2022-10-17T11:38:31.363Z,975.32
2022-10-17T11:39:31.666Z,975.30
2022-10-17T11:40:31.975Z,975.34
2022-10-17T11:41:32.283Z,975.29
2022-10-17T11:42:32.981Z,975.28
2022-10-17T11:43:32.836Z,975.32
2022-10-17T11:44:33.150Z,975.26
2022-10-17T11:45:33.454Z,975.24
2022-10-17T11:46:33.787Z,975.29
2022-10-17T11:47:34.150Z,975.25
2022-10-17T11:48:34.465Z,975.25
2022-10-17T11:49:38.225Z,975.22
2022-10-17T11:52:55.502Z,975.21
2022-10-17T11:53:36.854Z,975.15
2022-10-17T11:54:36.097Z,975.18
2022-10-17T11:55:36.423Z,975.15
2022-10-17T11:56:41.813Z,975.16
2022-10-17T11:57:38.013Z,975.14
2022-10-17T11:58:37.540Z,975.16
2022-10-17T11:59:37.547Z,975.16
2022-10-17T12:00:40.545Z,975.13
2022-10-17T12:01:38.260Z,975.16
2022-10-17T12:02:39.204Z,975.15
2022-10-17T12:03:38.656Z,975.17
2022-10-17T12:04:39.358Z,975.18
2022-10-17T12:05:39.082Z,975.14
2022-10-17T12:06:39.407Z,975.19
2022-10-17T12:07:39.766Z,975.21
2022-10-17T12:08:40.007Z,975.19
2022-10-17T12:09:40.341Z,975.18
2022-10-17T12:10:40.655Z,975.13
2022-10-17T12:11:40.992Z,975.17
2022-10-17T12:12:41.331Z,975.06
2022-10-17T12:13:41.636Z,975.11
2022-10-17T12:14:41.985Z,975.15
2022-10-17T12:15:46.473Z,975.08
2022-10-17T12:17:42.764Z,975.01
2022-10-17T12:18:42.943Z,975.04
2022-10-17T12:19:43.225Z,975.05
2022-10-17T12:20:43.559Z,975.01
2022-10-17T12:21:43.764Z,975.02
2022-10-17T12:22:44.136Z,975.02
2022-10-17T12:23:44.344Z,975.04
2022-10-17T12:24:44.648Z,975.01
2022-10-17T12:25:44.983Z,974.96
2022-10-17T12:26:45.292Z,974.88
2022-10-17T12:27:45.650Z,974.87
2022-10-17T12:28:45.890Z,974.81
2022-10-17T12:29:46.105Z,974.76
2022-10-17T12:30:46.455Z,974.64
2022-10-17T12:31:47.554Z,974.67
2022-10-17T12:33:04.143Z,974.59
2022-10-17T12:33:48.438Z,974.55
2022-10-17T12:34:47.691Z,974.55
2022-10-17T12:35:48.003Z,974.52
2022-10-17T12:36:48.340Z,974.46
2022-10-17T12:37:48.531Z,974.41
2022-10-17T12:38:49.870Z,974.47
2022-10-17T12:39:49.181Z,974.53
2022-10-17T12:40:49.500Z,974.55
2022-10-17T12:41:49.860Z,974.51
2022-10-17T12:42:50.058Z,974.53
2022-10-17T12:44:51.358Z,974.52
2022-10-17T12:45:51.077Z,974.54
2022-10-17T12:46:51.338Z,974.52
2022-10-17T12:47:51.550Z,974.50
2022-10-17T12:48:51.813Z,974.50
2022-10-17T12:49:56.487Z,974.51
2022-10-17T12:50:52.425Z,974.54
2022-10-17T12:51:52.759Z,974.57
2022-10-17T12:52:53.064Z,974.53
2022-10-17T12:53:53.408Z,974.52
2022-10-17T12:55:00.622Z,974.50
2022-10-17T12:55:54.946Z,974.52
2022-10-17T12:56:54.233Z,974.54
2022-10-17T12:57:54.580Z,974.52
2022-10-17T12:58:54.882Z,974.49
2022-10-17T12:59:57.976Z,974.49
2022-10-17T13:01:18.964Z,974.50
2022-10-17T13:01:56.752Z,974.47
2022-10-17T13:02:56.015Z,974.48
2022-10-17T13:03:56.310Z,974.48
2022-10-17T13:04:56.625Z,974.51
2022-10-17T13:05:56.970Z,974.58
2022-10-17T13:06:57.167Z,974.58
2022-10-17T13:07:57.487Z,974.59
2022-10-17T13:09:03.328Z,974.57
2022-10-17T13:09:59.126Z,974.58
2022-10-17T13:10:58.403Z,974.58
2022-10-17T13:11:58.780Z,974.67
2022-10-17T13:12:58.974Z,974.65
2022-10-17T13:13:59.287Z,974.66
2022-10-17T13:14:59.596Z,974.68
2022-10-17T13:15:59.946Z,974.64
2022-10-17T13:17:00.134Z,974.66
2022-10-17T13:18:00.471Z,974.75
2022-10-17T13:19:00.781Z,974.81
2022-10-17T13:20:01.074Z,974.82
2022-10-17T13:21:01.419Z,974.83
2022-10-17T13:22:06.536Z,974.75
2022-10-17T13:23:03.018Z,974.81
2022-10-17T13:24:02.279Z,974.78
2022-10-17T13:25:02.596Z,974.77
2022-10-17T13:26:02.930Z,974.76
2022-10-17T13:27:07.056Z,974.75
2022-10-17T13:28:03.537Z,974.70
2022-10-17T13:29:03.978Z,974.66
2022-10-17T13:30:04.136Z,974.71
2022-10-17T13:31:04.440Z,974.70
2022-10-17T13:32:04.795Z,974.71
2022-10-17T13:33:04.985Z,974.75
2022-10-17T13:34:05.279Z,974.73
2022-10-17T13:35:05.597Z,974.73
2022-10-17T13:36:05.952Z,974.73
2022-10-17T13:37:06.183Z,974.78
2022-10-17T13:38:06.518Z,974.83
2022-10-17T13:39:09.405Z,974.73
2022-10-17T13:40:30.892Z,974.82
2022-10-17T13:41:33.588Z,974.86
2022-10-17T13:42:08.550Z,974.84
2022-10-17T13:43:07.798Z,974.85
2022-10-17T13:44:08.087Z,974.89
2022-10-17T13:45:08.401Z,974.86
2022-10-17T13:46:32.583Z,974.90
2022-10-17T13:47:10.078Z,974.84
2022-10-17T13:48:09.343Z,974.91
2022-10-17T13:49:09.657Z,974.89
2022-10-17T13:50:26.384Z,974.89
2022-10-17T13:51:11.405Z,974.90
2022-10-17T13:52:10.579Z,974.93
2022-10-17T13:53:10.885Z,974.94
2022-10-17T13:54:11.169Z,974.95
2022-10-17T13:55:14.287Z,974.92
2022-10-17T13:56:29.551Z,974.92
2022-10-17T13:57:13.089Z,974.94
2022-10-17T13:58:12.231Z,974.91
2022-10-17T13:59:12.552Z,974.90
2022-10-17T14:00:12.864Z,974.90
2022-10-17T14:01:13.221Z,974.91
2022-10-17T14:02:13.462Z,974.91
2022-10-17T14:03:13.674Z,974.90
2022-10-17T14:04:19.751Z,974.89
2022-10-17T14:05:18.316Z,974.92
2022-10-17T14:06:14.612Z,974.93
2022-10-17T14:07:14.964Z,974.94
2022-10-17T14:08:21.856Z,974.91
2022-10-17T14:09:16.574Z,974.94
2022-10-17T14:10:15.835Z,974.96
2022-10-17T14:11:16.193Z,975.00
2022-10-17T14:12:16.397Z,974.96
2022-10-17T14:13:16.732Z,974.93
2022-10-17T14:14:17.056Z,974.99
2022-10-17T14:15:17.363Z,974.99
2022-10-17T14:16:17.677Z,975.04
2022-10-17T14:17:17.995Z,975.04
2022-10-17T14:18:18.365Z,975.04
2022-10-17T14:19:18.543Z,975.05
2022-10-17T14:21:40.569Z,975.08
2022-10-17T14:22:20.486Z,975.04
2022-10-17T14:23:22.902Z,975.03
2022-10-17T14:24:20.076Z,975.08
2022-10-17T14:25:20.364Z,975.10
2022-10-17T14:26:20.668Z,975.06
2022-10-17T14:27:22.319Z,975.07
2022-10-17T14:28:21.234Z,975.07
2022-10-17T14:29:21.568Z,974.51
2022-10-17T14:30:38.802Z,974.56
2022-10-17T14:31:23.189Z,974.54
2022-10-17T14:32:22.470Z,974.57
2022-10-17T14:33:22.841Z,974.57
2022-10-17T14:34:22.981Z,974.59
2022-10-17T14:35:41.092Z,974.62
2022-10-17T14:36:24.636Z,974.58
2022-10-17T14:37:23.868Z,974.59
2022-10-17T14:38:24.155Z,974.60
2022-10-17T14:39:24.490Z,974.65
2022-10-17T14:40:24.801Z,974.65
2022-10-17T14:42:26.407Z,974.63